createdAt,value
2022-10-05T00:01:31.231Z,101253.00
2022-10-05T00:04:34.148Z,101247.00
2022-10-05T00:07:36.472Z,101250.37
2022-10-05T00:10:41.426Z,101255.88
2022-10-05T00:13:43.807Z,101259.91
2022-10-05T00:16:47.307Z,101257.09
2022-10-05T00:19:53.950Z,101249.38
2022-10-05T00:22:58.466Z,101257.09
2022-10-05T00:26:12.115Z,101250.81
2022-10-05T00:29:18.963Z,101270.66
2022-10-05T00:32:21.324Z,101254.81
2022-10-05T00:35:24.606Z,101255.81
2022-10-05T00:38:28.247Z,101246.03
2022-10-05T00:41:40.636Z,101243.13
2022-10-05T00:44:50.739Z,101242.12
2022-10-05T00:47:59.540Z,101246.56
2022-10-05T00:51:07.728Z,101243.94
2022-10-05T00:54:28.718Z,101241.09
2022-10-05T00:57:49.214Z,101235.72
2022-10-05T01:00:58.711Z,101243.37
2022-10-05T01:04:12.739Z,101239.16
2022-10-05T01:07:24.841Z,101240.78
2022-10-05T01:10:43.310Z,101243.34
2022-10-05T01:13:52.338Z,101257.84
2022-10-05T01:17:17.089Z,101261.63
2022-10-05T01:20:19.779Z,101267.41
2022-10-05T01:23:25.039Z,101281.03
2022-10-05T01:26:42.724Z,101270.53
2022-10-05T01:29:51.430Z,101276.47
2022-10-05T01:33:00.496Z,101272.88
2022-10-05T01:36:06.184Z,101281.31
2022-10-05T01:39:28.626Z,101287.09
2022-10-05T01:42:33.643Z,101280.91
2022-10-05T01:45:48.544Z,101288.72
2022-10-05T01:48:50.731Z,101288.41
2022-10-05T01:52:03.583Z,101277.97
2022-10-05T01:55:08.574Z,101277.87
2022-10-05T01:58:23.080Z,101277.00
2022-10-05T02:01:44.639Z,101281.25
2022-10-05T02:05:03.240Z,101284.66
2022-10-05T02:08:09.955Z,101294.19
2022-10-05T02:11:15.008Z,101297.69
2022-10-05T02:14:24.057Z,101300.38
2022-10-05T02:17:36.648Z,101298.28
2022-10-05T02:20:40.281Z,101293.78
2022-10-05T02:23:44.673Z,101298.69
2022-10-05T02:26:47.847Z,101300.16
2022-10-05T02:29:56.844Z,101304.37
2022-10-05T02:33:06.640Z,101300.81
2022-10-05T02:36:23.890Z,101307.75
2022-10-05T02:39:32.880Z,101311.06
2022-10-05T02:42:42.006Z,101311.16
2022-10-05T02:45:50.907Z,101309.31
2022-10-05T02:49:09.163Z,101311.16
2022-10-05T02:52:33.093Z,101309.94
2022-10-05T02:55:45.162Z,101321.81
2022-10-05T02:58:59.266Z,101321.66
2022-10-05T03:02:08.694Z,101321.44
2022-10-05T03:05:23.817Z,101313.62
2022-10-05T03:08:29.740Z,101316.16
2022-10-05T03:11:35.101Z,101318.72
2022-10-05T03:14:50.231Z,101309.66
2022-10-05T03:17:58.649Z,101304.97
2022-10-05T03:21:08.256Z,101303.94
2022-10-05T03:24:29.718Z,101295.03
2022-10-05T03:27:41.751Z,101296.59
2022-10-05T03:30:48.557Z,101291.91
2022-10-05T03:34:06.312Z,101291.22
2022-10-05T03:37:32.161Z,101289.31
2022-10-05T03:40:43.262Z,101290.16
2022-10-05T03:44:03.573Z,101297.97
2022-10-05T03:47:25.327Z,101301.28
2022-10-05T03:50:51.944Z,101306.94
2022-10-05T03:54:03.053Z,101311.78
2022-10-05T03:57:11.988Z,101312.44
2022-10-05T04:00:17.604Z,101326.38
2022-10-05T04:03:24.757Z,101319.34
2022-10-05T04:06:30.573Z,101323.41
2022-10-05T04:09:45.705Z,101321.63
2022-10-05T04:12:51.180Z,101323.09
2022-10-05T04:16:17.010Z,101321.28
2022-10-05T04:19:19.928Z,101318.69
2022-10-05T04:22:30.741Z,101322.72
2022-10-05T04:25:39.705Z,101327.19
2022-10-05T04:28:58.938Z,101331.44
2022-10-05T04:32:04.199Z,101329.56
2022-10-05T04:35:07.366Z,101331.44
2022-10-05T04:38:28.294Z,101330.09
2022-10-05T04:41:40.065Z,101335.13
2022-10-05T04:44:42.764Z,101336.94
2022-10-05T04:47:51.843Z,101332.69
2022-10-05T04:51:07.282Z,101339.81
2022-10-05T04:54:21.959Z,101331.81
2022-10-05T04:57:32.337Z,101331.91
2022-10-05T05:00:37.987Z,101327.59
2022-10-05T05:03:59.347Z,101324.50
2022-10-05T05:07:21.085Z,101326.03
2022-10-05T05:10:38.899Z,101328.75
2022-10-05T05:14:00.494Z,101331.34
2022-10-05T05:17:03.069Z,101322.81
2022-10-05T05:20:05.664Z,101312.00
2022-10-05T05:23:12.819Z,101320.00
2022-10-05T05:26:21.665Z,101322.69
2022-10-05T05:29:43.002Z,101327.16
2022-10-05T05:32:52.089Z,101329.84
2022-10-05T05:36:04.729Z,101327.44
2022-10-05T05:39:16.318Z,101336.41
2022-10-05T05:42:31.615Z,101339.44
2022-10-05T05:46:03.460Z,101344.97
2022-10-05T05:49:26.357Z,101356.00
2022-10-05T05:52:31.978Z,101350.44
2022-10-05T05:55:36.725Z,101360.72
2022-10-05T05:58:48.725Z,101367.41
2022-10-05T06:01:54.120Z,101375.72
2022-10-05T06:05:09.807Z,101378.56
2022-10-05T06:08:24.857Z,101383.28
2022-10-05T06:11:30.907Z,101401.25
2022-10-05T06:14:37.304Z,101403.13
2022-10-05T06:17:43.375Z,101412.31
2022-10-05T06:20:48.826Z,101413.72
2022-10-05T06:23:54.845Z,101431.97
2022-10-05T06:27:29.774Z,101437.25
2022-10-05T06:30:47.641Z,101438.22
2022-10-05T06:33:52.087Z,101435.97
2022-10-05T06:37:03.742Z,101434.22
2022-10-05T06:40:15.428Z,101436.28
2022-10-05T06:43:17.939Z,101441.62
2022-10-05T06:46:28.087Z,101445.88
2022-10-05T06:49:51.529Z,101449.25
2022-10-05T06:53:10.984Z,101437.72
2022-10-05T06:56:25.633Z,101434.88
2022-10-05T06:59:48.298Z,101448.16
2022-10-05T07:03:09.892Z,101450.59
2022-10-05T07:06:21.384Z,101460.75
2022-10-05T07:09:32.737Z,101464.63
2022-10-05T07:12:45.570Z,101468.59
2022-10-05T07:15:55.006Z,101465.69
2022-10-05T07:19:16.236Z,101464.84
2022-10-05T07:22:18.972Z,101457.13
2022-10-05T07:25:33.764Z,101446.87
2022-10-05T07:29:10.742Z,101449.59
2022-10-05T07:32:29.007Z,101457.03
2022-10-05T07:35:56.542Z,101468.50
2022-10-05T07:39:02.721Z,101472.41
2022-10-05T07:42:24.427Z,101461.91
2022-10-05T07:45:40.025Z,101444.56
2022-10-05T07:49:00.595Z,101434.38
2022-10-05T07:52:06.625Z,101430.72
2022-10-05T07:55:14.804Z,101434.13
2022-10-05T07:58:28.916Z,101426.25
2022-10-05T08:01:34.931Z,101435.34
2022-10-05T08:04:41.978Z,101445.50
2022-10-05T08:07:45.846Z,101441.62
2022-10-05T08:11:05.369Z,101437.31
2022-10-05T08:14:17.136Z,101434.66
2022-10-05T08:17:31.894Z,101431.09
2022-10-05T08:20:34.167Z,101414.09
2022-10-05T08:23:42.116Z,101398.63
2022-10-05T08:26:55.398Z,101396.66
2022-10-05T08:30:11.611Z,101392.50
2022-10-05T08:33:16.992Z,101380.09
2022-10-05T08:36:26.211Z,101387.56
2022-10-05T08:39:31.283Z,101390.75
2022-10-05T08:42:52.172Z,101390.84
2022-10-05T08:45:54.496Z,101380.59
2022-10-05T08:48:57.321Z,101384.25
2022-10-05T08:52:18.672Z,101377.78
2022-10-05T08:55:40.224Z,101382.59
2022-10-05T08:58:48.848Z,101384.91
2022-10-05T09:01:55.407Z,101383.81
2022-10-05T09:05:03.098Z,101388.19
2022-10-05T09:08:32.151Z,101403.22
2022-10-05T09:11:39.098Z,101394.44
2022-10-05T09:15:13.691Z,101416.56
2022-10-05T09:18:36.368Z,101415.75
2022-10-05T09:21:45.906Z,101430.88
2022-10-05T09:25:02.039Z,101427.28
2022-10-05T09:28:07.955Z,101423.66
2022-10-05T09:31:14.071Z,101413.44
2022-10-05T09:34:53.685Z,101418.59
2022-10-05T09:37:58.839Z,101414.13
2022-10-05T09:41:20.587Z,101413.72
2022-10-05T09:44:22.839Z,101413.47
2022-10-05T09:47:45.238Z,101409.44
2022-10-05T09:51:23.269Z,101413.72
2022-10-05T09:54:29.261Z,101406.87
2022-10-05T09:57:40.619Z,101410.44
2022-10-05T10:01:03.756Z,101405.12
2022-10-05T10:04:15.605Z,101407.75
2022-10-05T10:07:19.046Z,101407.69
2022-10-05T10:10:57.112Z,101398.84
2022-10-05T10:14:02.317Z,101407.56
2022-10-05T10:17:40.482Z,101409.78
2022-10-05T10:20:42.825Z,101405.53
2022-10-05T10:24:14.112Z,101407.72
2022-10-05T10:27:16.568Z,101413.94
2022-10-05T10:30:27.509Z,101409.16
2022-10-05T10:33:46.282Z,101406.25
2022-10-05T10:37:08.008Z,101400.06
2022-10-05T10:40:13.585Z,101402.00
2022-10-05T10:43:45.423Z,101404.22
2022-10-05T10:46:50.876Z,101403.81
2022-10-05T10:49:53.703Z,101403.44
2022-10-05T10:53:15.046Z,101408.56
2022-10-05T10:56:41.965Z,101397.06
2022-10-05T10:59:44.436Z,101409.22
2022-10-05T11:02:56.469Z,101406.84
2022-10-05T11:05:59.146Z,101410.34
2022-10-05T11:09:05.052Z,101411.25
2022-10-05T11:12:26.100Z,101406.84
2022-10-05T11:15:48.302Z,101408.62
2022-10-05T11:19:04.811Z,101404.13
2022-10-05T11:22:25.952Z,101398.00
2022-10-05T11:25:28.635Z,101393.56
2022-10-05T11:28:49.965Z,101398.84
2022-10-05T11:31:58.292Z,101395.28
2022-10-05T11:35:16.048Z,101385.41
2022-10-05T11:38:40.115Z,101381.00
2022-10-05T11:41:42.904Z,101376.59
2022-10-05T11:44:46.952Z,101374.91
2022-10-05T11:48:18.014Z,101375.78
2022-10-05T11:51:29.285Z,101366.84
2022-10-05T11:55:05.816Z,101364.12
2022-10-05T11:58:16.178Z,101361.41
2022-10-05T12:01:34.766Z,101361.41
2022-10-05T12:04:56.397Z,101353.41
2022-10-05T12:08:05.164Z,101350.75
2022-10-05T12:11:13.439Z,101341.06
2022-10-05T12:14:25.795Z,101347.38
2022-10-05T12:17:40.994Z,101341.16
2022-10-05T12:21:13.047Z,101342.94
2022-10-05T12:24:30.194Z,101350.94
2022-10-05T12:27:40.136Z,101342.94
2022-10-05T12:30:52.633Z,101345.59
2022-10-05T12:34:16.871Z,101330.50
2022-10-05T12:37:25.919Z,101326.97
2022-10-05T12:40:28.192Z,101326.94
2022-10-05T12:43:43.700Z,101326.78
2022-10-05T12:47:23.844Z,101319.75
2022-10-05T12:50:55.753Z,101305.56
2022-10-05T12:54:00.960Z,101304.63
2022-10-05T12:57:19.122Z,101322.31
2022-10-05T13:00:23.273Z,101311.06
2022-10-05T13:03:34.685Z,101301.94
2022-10-05T13:06:43.020Z,101306.38
2022-10-05T13:10:00.378Z,101305.09
2022-10-05T13:13:05.567Z,101308.63
2022-10-05T13:16:08.336Z,101312.00
2022-10-05T13:19:13.427Z,101313.25
2022-10-05T13:22:22.277Z,101311.19
2022-10-05T13:25:45.228Z,101307.66
2022-10-05T13:28:55.257Z,101306.50
2022-10-05T13:32:00.464Z,101300.25
2022-10-05T13:35:15.420Z,101302.34
2022-10-05T13:38:36.852Z,101289.44
2022-10-05T13:42:02.969Z,101297.50
2022-10-05T13:45:12.998Z,101292.97
2022-10-05T13:48:22.914Z,101294.47
2022-10-05T13:51:29.466Z,101290.97
2022-10-05T13:54:34.979Z,101287.44
2022-10-05T13:57:45.192Z,101290.78
2022-10-05T14:00:50.979Z,101288.91
2022-10-05T14:04:12.096Z,101294.97
2022-10-05T14:07:26.533Z,101299.53
2022-10-05T14:10:39.877Z,101294.13
2022-10-05T14:13:46.852Z,101302.97
2022-10-05T14:16:51.988Z,101301.81
2022-10-05T14:19:56.973Z,101304.31
2022-10-05T14:23:01.976Z,101299.16
2022-10-05T14:26:17.435Z,101298.09
2022-10-05T14:29:35.202Z,101299.91
2022-10-05T14:32:57.172Z,101299.00
2022-10-05T14:36:00.019Z,101305.03
2022-10-05T14:39:05.124Z,101294.25
2022-10-05T14:42:19.069Z,101298.75
2022-10-05T14:45:23.801Z,101300.44
2022-10-05T14:48:28.684Z,101304.53
2022-10-05T14:51:32.246Z,101301.81
2022-10-05T14:54:44.374Z,101299.00
2022-10-05T14:58:07.128Z,101298.88
2022-10-05T15:01:31.505Z,101290.72
2022-10-05T15:04:39.343Z,101283.53
2022-10-05T15:07:43.994Z,101280.84
2022-10-05T15:10:52.953Z,101290.34
2022-10-05T15:13:55.589Z,101272.53
2022-10-05T15:17:01.785Z,101269.66
2022-10-05T15:20:17.692Z,101273.13
2022-10-05T15:23:32.498Z,101274.97
2022-10-05T15:26:47.133Z,101279.22
2022-10-05T15:29:57.726Z,101286.78
2022-10-05T15:33:15.367Z,101285.03
2022-10-05T15:36:20.057Z,101261.09
2022-10-05T15:39:35.219Z,101256.53
2022-10-05T15:42:38.768Z,101263.53
2022-10-05T15:45:43.499Z,101265.94
2022-10-05T15:48:46.032Z,101255.06
2022-10-05T15:51:50.787Z,101263.78
2022-10-05T15:54:56.142Z,101263.59
2022-10-05T15:58:17.526Z,101262.72
2022-10-05T16:01:19.995Z,101256.50
2022-10-05T16:04:41.654Z,101261.53
2022-10-05T16:08:08.178Z,101265.84
2022-10-05T16:11:18.353Z,101269.22
2022-10-05T16:14:40.230Z,101272.59
2022-10-05T16:18:01.407Z,101276.94
2022-10-05T16:21:14.057Z,101283.88
2022-10-05T16:24:18.717Z,101276.63
2022-10-05T16:27:28.906Z,101283.56
2022-10-05T16:30:40.700Z,101277.16
2022-10-05T16:34:02.071Z,101282.47
2022-10-05T16:37:16.804Z,101276.03
2022-10-05T16:40:34.595Z,101283.00
2022-10-05T16:43:45.922Z,101287.19
2022-10-05T16:47:27.474Z,101290.53
2022-10-05T16:50:30.617Z,101298.31
2022-10-05T16:53:36.079Z,101296.28
2022-10-05T16:56:51.278Z,101298.75
2022-10-05T16:59:53.655Z,101304.78
2022-10-05T17:02:59.007Z,101309.22
2022-10-05T17:06:20.072Z,101315.97
2022-10-05T17:09:22.699Z,101322.13
2022-10-05T17:12:37.620Z,101326.19
2022-10-05T17:16:04.116Z,101328.81
2022-10-05T17:19:15.333Z,101329.53
2022-10-05T17:22:23.885Z,101331.00
2022-10-05T17:25:36.530Z,101339.53
2022-10-05T17:28:41.607Z,101331.44
2022-10-05T17:32:03.039Z,101328.81
2022-10-05T17:35:19.042Z,101332.19
2022-10-05T17:38:23.595Z,101334.03
2022-10-05T17:41:30.276Z,101331.28
2022-10-05T17:44:32.954Z,101330.31
2022-10-05T17:47:57.316Z,101340.16
2022-10-05T17:51:18.148Z,101338.84
2022-10-05T17:54:41.137Z,101342.34
2022-10-05T17:57:43.803Z,101342.06
2022-10-05T18:00:58.347Z,101348.25
2022-10-05T18:04:11.938Z,101350.06
2022-10-05T18:07:22.723Z,101346.53
2022-10-05T18:10:29.333Z,101347.53
2022-10-05T18:13:31.538Z,101338.34
2022-10-05T18:16:54.076Z,101339.22
2022-10-05T18:20:15.100Z,101336.22
2022-10-05T18:23:23.901Z,101337.25
2022-10-05T18:26:48.017Z,101340.41
2022-10-05T18:30:05.413Z,101346.53
2022-10-05T18:33:10.752Z,101340.09
2022-10-05T18:36:27.545Z,101350.66
2022-10-05T18:39:32.590Z,101347.91
2022-10-05T18:42:48.500Z,101349.44
2022-10-05T18:45:54.176Z,101338.78
2022-10-05T18:48:56.835Z,101341.53
2022-10-05T18:52:06.458Z,101336.94
2022-10-05T18:55:21.448Z,101340.34
2022-10-05T18:58:35.830Z,101340.06
2022-10-05T19:01:52.362Z,101339.25
2022-10-05T19:05:05.650Z,101340.00
2022-10-05T19:08:32.966Z,101334.75
2022-10-05T19:11:45.267Z,101335.47
2022-10-05T19:14:54.243Z,101341.53
2022-10-05T19:18:08.464Z,101339.34
2022-10-05T19:21:24.652Z,101337.97
2022-10-05T19:24:33.408Z,101343.66
2022-10-05T19:27:36.672Z,101347.66
2022-10-05T19:30:45.381Z,101345.13
2022-10-05T19:34:07.002Z,101356.19
2022-10-05T19:37:09.436Z,101360.50
2022-10-05T19:40:26.422Z,101348.94
2022-10-05T19:43:35.691Z,101357.62
2022-10-05T19:46:44.582Z,101359.37
2022-10-05T19:49:53.036Z,101359.37
2022-10-05T19:53:09.366Z,101357.47
2022-10-05T19:56:20.370Z,101369.53
2022-10-05T19:59:26.636Z,101368.66
2022-10-05T20:06:10.958Z,101370.47
2022-10-05T20:09:21.911Z,101370.47
2022-10-05T20:12:50.802Z,101376.47
2022-10-05T20:16:45.525Z,101380.44
2022-10-05T20:20:08.099Z,101389.94
2022-10-05T20:23:24.606Z,101392.44
2022-10-05T20:27:04.177Z,101391.31
2022-10-05T20:30:09.864Z,101393.75
2022-10-05T20:33:14.735Z,101396.16
2022-10-05T20:36:17.657Z,101395.22
2022-10-05T20:39:21.371Z,101396.78
2022-10-05T20:42:26.735Z,101394.91
2022-10-05T20:45:29.328Z,101400.16
2022-10-05T20:48:36.790Z,101406.13
2022-10-05T20:51:40.216Z,101398.22
2022-10-05T20:54:43.253Z,101398.84
2022-10-05T20:57:46.228Z,101397.00
2022-10-05T21:01:08.145Z,101394.38
2022-10-05T21:04:10.852Z,101396.28
2022-10-05T21:07:15.621Z,101401.34
2022-10-05T21:10:18.122Z,101399.56
2022-10-05T21:13:21.351Z,101392.41
2022-10-05T21:16:24.918Z,101398.44
2022-10-05T21:19:29.427Z,101400.00
2022-10-05T21:22:31.984Z,101400.75
2022-10-05T21:25:34.984Z,101400.56
2022-10-05T21:28:38.995Z,101388.09
2022-10-05T21:31:42.201Z,101390.59
2022-10-05T21:34:44.671Z,101401.81
2022-10-05T21:37:47.617Z,101392.94
2022-10-05T21:40:50.231Z,101395.50
2022-10-05T21:43:53.502Z,101393.69
2022-10-05T21:46:56.613Z,101404.97
2022-10-05T21:50:00.445Z,101403.97
2022-10-05T21:53:05.633Z,101395.87
2022-10-05T21:56:12.735Z,101396.72
2022-10-05T21:59:19.168Z,101394.09
2022-10-05T22:02:23.255Z,101395.87
2022-10-05T22:05:26.045Z,101395.94
2022-10-05T22:08:31.127Z,101387.88
2022-10-05T22:11:34.324Z,101388.41
2022-10-05T22:14:37.183Z,101380.59
2022-10-05T22:17:40.646Z,101388.22
2022-10-05T22:20:44.051Z,101384.69
2022-10-05T22:23:47.352Z,101377.59
2022-10-05T22:26:53.695Z,101383.66
2022-10-05T22:29:58.055Z,101379.28
2022-10-05T22:33:00.761Z,101374.78
2022-10-05T22:36:04.766Z,101382.56
2022-10-05T22:39:08.148Z,101385.19
2022-10-05T22:42:10.997Z,101384.19
2022-10-05T22:45:14.390Z,101378.94
2022-10-05T22:48:17.214Z,101376.31
2022-10-05T22:51:19.858Z,101372.81
2022-10-05T22:54:26.255Z,101370.06
2022-10-05T22:57:41.555Z,101374.34
2022-10-05T23:00:58.137Z,101364.81
2022-10-05T23:04:02.108Z,101363.78
2022-10-05T23:07:05.573Z,101356.69
2022-10-05T23:10:11.121Z,101359.31
2022-10-05T23:13:15.332Z,101357.47
2022-10-05T23:16:21.542Z,101352.97
2022-10-05T23:19:24.340Z,101350.94
2022-10-05T23:22:27.070Z,101349.81
2022-10-05T23:25:29.876Z,101349.81
2022-10-05T23:28:33.727Z,101346.34
2022-10-05T23:31:36.973Z,101350.69
2022-10-05T23:34:39.638Z,101345.53
2022-10-05T23:37:44.406Z,101346.41
2022-10-05T23:40:47.592Z,101338.56
2022-10-05T23:43:50.565Z,101342.09
2022-10-05T23:46:53.299Z,101349.81
2022-10-05T23:49:56.060Z,101344.56
2022-10-05T23:52:58.688Z,101343.62
2022-10-05T23:56:01.843Z,101343.41
2022-10-05T23:59:04.445Z,101345.09
